^^
Meteo Knjazevac Station Historical Data
Daily Summary for June 4, 2021 Units:  Both    English   Metric
Daily Weekly Monthly Yearly Custom
  High: Low: Average:
Temperature: 42.3 °F /  5.7 °C 34.9 °F /  1.6 °C 37.7 °F /  3.2 °C
Dew Point: 37.5 °F /  3.1 °C 33.4 °F /  0.8 °C 35.3 °F /  1.8 °C
Humidity: 98% 81% 91%
Wind Speed: 7mph /  11.3km/h - 1.7mph /  2.7km/h
Wind Gust: 13mph /  20.9km/h - -
Wind- - SSW
Pressure: 29.95 in /  1014.1 hPa 29.87 in /  1011.4 hPa -
Precipitation: 0.00 in /  0 mm    
Historical Graphs
 
 
Tabular Data for June 4, 2021
Time Temperature Dew Point Pressure Wind Wind Speed Wind Gust Humidity Rainfall Rate (Hourly) solar Conditions
00:00 36.5 °F /  2.5 °C 36 °F /  2.2 °C 29.95in /  1014.1hPa SSW 2mph /  3.2km/h 5mph /  8km/h 98% 0.00in /  0mm 0 W/m2
00:10 36.5 °F /  2.5 °C 35.5 °F /  1.9 °C 29.95in /  1014.1hPa South 2mph /  3.2km/h 6mph /  9.7km/h 96% 0.00in /  0mm 0 W/m2
00:20 36.5 °F /  2.5 °C 35.5 °F /  1.9 °C 29.94in /  1013.8hPa South 2mph /  3.2km/h 5mph /  8km/h 96% 0.00in /  0mm 0 W/m2
00:30 36.7 °F /  2.6 °C 35.6 °F /  2 °C 29.94in /  1013.8hPa South 1mph /  1.6km/h 5mph /  8km/h 96% 0.00in /  0mm 0 W/m2
00:40 36.7 °F /  2.6 °C 35.6 °F /  2 °C 29.94in /  1013.8hPa SW 3mph /  4.8km/h 6mph /  9.7km/h 96% 0.00in /  0mm 0 W/m2
00:50 36.5 °F /  2.5 °C 35.5 °F /  1.9 °C 29.94in /  1013.8hPa SSW 2mph /  3.2km/h 5mph /  8km/h 96% 0.00in /  0mm 0 W/m2
01:00 36.7 °F /  2.6 °C 35.6 °F /  2 °C 29.94in /  1013.8hPa SSE 2mph /  3.2km/h 5mph /  8km/h 96% 0.00in /  0mm 0 W/m2
01:10 36.7 °F /  2.6 °C 35.6 °F /  2 °C 29.94in /  1013.8hPa SE 3mph /  4.8km/h 5mph /  8km/h 96% 0.00in /  0mm 0 W/m2
01:20 36.7 °F /  2.6 °C 35.6 °F /  2 °C 29.94in /  1013.8hPa SSE 2mph /  3.2km/h 6mph /  9.7km/h 96% 0.00in /  0mm 0 W/m2
01:30 36.9 °F /  2.7 °C 35.8 °F /  2.1 °C 29.94in /  1013.8hPa South 2mph /  3.2km/h 5mph /  8km/h 96% 0.00in /  0mm 0 W/m2
01:40 36.9 °F /  2.7 °C 35.8 °F /  2.1 °C 29.94in /  1013.8hPa SSW 1mph /  1.6km/h 5mph /  8km/h 96% 0.00in /  0mm 0 W/m2
01:50 36.9 °F /  2.7 °C 35.8 °F /  2.1 °C 29.94in /  1013.8hPa SSW 2mph /  3.2km/h 4mph /  6.4km/h 96% 0.00in /  0mm 0 W/m2
02:00 36.9 °F /  2.7 °C 35.8 °F /  2.1 °C 29.94in /  1013.8hPa South 1mph /  1.6km/h 5mph /  8km/h 96% 0.00in /  0mm 0 W/m2
02:10 36.9 °F /  2.7 °C 35.8 °F /  2.1 °C 29.95in /  1014.1hPa South 2mph /  3.2km/h 4mph /  6.4km/h 96% 0.00in /  0mm 0 W/m2
02:20 36.9 °F /  2.7 °C 35.8 °F /  2.1 °C 29.95in /  1014.1hPa SSW 2mph /  3.2km/h 3mph /  4.8km/h 96% 0.00in /  0mm 0 W/m2
02:30 36.9 °F /  2.7 °C 35.8 °F /  2.1 °C 29.95in /  1014.1hPa SW 3mph /  4.8km/h 5mph /  8km/h 96% 0.00in /  0mm 0 W/m2
02:40 36.9 °F /  2.7 °C 35.8 °F /  2.1 °C 29.94in /  1013.8hPa SSW 2mph /  3.2km/h 7mph /  11.3km/h 96% 0.00in /  0mm 0 W/m2
02:50 36.7 °F /  2.6 °C 35.6 °F /  2 °C 29.94in /  1013.8hPa SW 1mph /  1.6km/h 3mph /  4.8km/h 96% 0.00in /  0mm 0 W/m2
03:00 36.7 °F /  2.6 °C 35.6 °F /  2 °C 29.94in /  1013.8hPa Calm   2mph /  3.2km/h 96% 0.00in /  0mm 0 W/m2
03:10 36.7 °F /  2.6 °C 35.4 °F /  1.9 °C 29.94in /  1013.8hPa WSW 1mph /  1.6km/h 5mph /  8km/h 95% 0.00in /  0mm 0 W/m2
03:20 36.7 °F /  2.6 °C 35.4 °F /  1.9 °C 29.94in /  1013.8hPa SW 1mph /  1.6km/h 6mph /  9.7km/h 95% 0.00in /  0mm 0 W/m2
03:30 36.5 °F /  2.5 °C 35.2 °F /  1.8 °C 29.94in /  1013.8hPa SE 2mph /  3.2km/h 5mph /  8km/h 95% 0.00in /  0mm 0 W/m2
03:40 36.5 °F /  2.5 °C 35.2 °F /  1.8 °C 29.93in /  1013.4hPa SSE 2mph /  3.2km/h 5mph /  8km/h 95% 0.00in /  0mm 0 W/m2
03:50 36.5 °F /  2.5 °C 35.2 °F /  1.8 °C 29.93in /  1013.4hPa SSE 1mph /  1.6km/h 5mph /  8km/h 95% 0.00in /  0mm 0 W/m2
04:00 36.5 °F /  2.5 °C 35.2 °F /  1.8 °C 29.94in /  1013.8hPa SE 1mph /  1.6km/h 5mph /  8km/h 95% 0.00in /  0mm 0 W/m2
04:10 36.5 °F /  2.5 °C 35.2 °F /  1.8 °C 29.94in /  1013.8hPa SW 2mph /  3.2km/h 3mph /  4.8km/h 95% 0.00in /  0mm 0 W/m2
04:20 36.3 °F /  2.4 °C 34.8 °F /  1.6 °C 29.94in /  1013.8hPa South 1mph /  1.6km/h 3mph /  4.8km/h 94% 0.00in /  0mm 0 W/m2
04:30 36.3 °F /  2.4 °C 35 °F /  1.7 °C 29.94in /  1013.8hPa SW 1mph /  1.6km/h 4mph /  6.4km/h 95% 0.00in /  0mm 0 W/m2
04:40 36.3 °F /  2.4 °C 35 °F /  1.7 °C 29.94in /  1013.8hPa SSW 1mph /  1.6km/h 3mph /  4.8km/h 95% 0.00in /  0mm 0 W/m2
04:50 36.3 °F /  2.4 °C 35 °F /  1.7 °C 29.94in /  1013.8hPa SSW 2mph /  3.2km/h 4mph /  6.4km/h 95% 0.00in /  0mm 0 W/m2
05:00 36.3 °F /  2.4 °C 34.8 °F /  1.6 °C 29.94in /  1013.8hPa SSW 3mph /  4.8km/h 5mph /  8km/h 94% 0.00in /  0mm 0 W/m2
05:10 36.1 °F /  2.3 °C 34.6 °F /  1.4 °C 29.94in /  1013.8hPa SSW 2mph /  3.2km/h 5mph /  8km/h 94% 0.00in /  0mm 0 W/m2
05:20 36.1 °F /  2.3 °C 34.6 °F /  1.4 °C 29.94in /  1013.8hPa SSW 2mph /  3.2km/h 4mph /  6.4km/h 94% 0.00in /  0mm 0 W/m2
05:30 36.1 °F /  2.3 °C 34.6 °F /  1.4 °C 29.94in /  1013.8hPa SW 2mph /  3.2km/h 3mph /  4.8km/h 94% 0.00in /  0mm 0 W/m2
05:40 36.1 °F /  2.3 °C 34.6 °F /  1.4 °C 29.94in /  1013.8hPa Calm   3mph /  4.8km/h 94% 0.00in /  0mm 0 W/m2
05:50 36.1 °F /  2.3 °C 34.6 °F /  1.4 °C 29.94in /  1013.8hPa SW 2mph /  3.2km/h 3mph /  4.8km/h 94% 0.00in /  0mm 0 W/m2
06:00 36 °F /  2.2 °C 34.4 °F /  1.3 °C 29.94in /  1013.8hPa WSW 1mph /  1.6km/h 3mph /  4.8km/h 94% 0.00in /  0mm 0 W/m2
06:10 36 °F /  2.2 °C 34.4 °F /  1.3 °C 29.94in /  1013.8hPa Calm   2mph /  3.2km/h 94% 0.00in /  0mm 0 W/m2
06:20 36 °F /  2.2 °C 34.4 °F /  1.3 °C 29.95in /  1014.1hPa NNW 1mph /  1.6km/h 2mph /  3.2km/h 94% 0.00in /  0mm 0 W/m2
06:30 36 °F /  2.2 °C 34.7 °F /  1.5 °C 29.94in /  1013.8hPa WSW 2mph /  3.2km/h 3mph /  4.8km/h 95% 0.00in /  0mm 0 W/m2
06:40 36 °F /  2.2 °C 34.7 °F /  1.5 °C 29.94in /  1013.8hPa NW 1mph /  1.6km/h 3mph /  4.8km/h 95% 0.00in /  0mm 0 W/m2
06:50 35.8 °F /  2.1 °C 34.2 °F /  1.2 °C 29.94in /  1013.8hPa West 2mph /  3.2km/h 4mph /  6.4km/h 94% 0.00in /  0mm 1 W/m2
07:00 35.8 °F /  2.1 °C 34.2 °F /  1.2 °C 29.94in /  1013.8hPa WSW 1mph /  1.6km/h 3mph /  4.8km/h 94% 0.00in /  0mm 4 W/m2
07:10 35.8 °F /  2.1 °C 34.2 °F /  1.2 °C 29.94in /  1013.8hPa WSW 1mph /  1.6km/h 4mph /  6.4km/h 94% 0.00in /  0mm 8 W/m2
07:20 35.6 °F /  2 °C 34 °F /  1.1 °C 29.93in /  1013.4hPa SE 1mph /  1.6km/h 5mph /  8km/h 94% 0.00in /  0mm 13 W/m2
07:30 35.8 °F /  2.1 °C 34.2 °F /  1.2 °C 29.93in /  1013.4hPa SE 1mph /  1.6km/h 5mph /  8km/h 94% 0.00in /  0mm 20 W/m2
07:40 35.8 °F /  2.1 °C 34.2 °F /  1.2 °C 29.93in /  1013.4hPa SE 2mph /  3.2km/h 4mph /  6.4km/h 94% 0.00in /  0mm 33 W/m2
07:50 35.8 °F /  2.1 °C 34.2 °F /  1.2 °C 29.94in /  1013.8hPa South 1mph /  1.6km/h 5mph /  8km/h 94% 0.00in /  0mm 49 W/m2
08:00 36 °F /  2.2 °C 34.7 °F /  1.5 °C 29.94in /  1013.8hPa WSW 2mph /  3.2km/h 5mph /  8km/h 95% 0.00in /  0mm 69 W/m2
08:10 36.1 °F /  2.3 °C 34.6 °F /  1.4 °C 29.94in /  1013.8hPa West 3mph /  4.8km/h 6mph /  9.7km/h 94% 0.00in /  0mm 119 W/m2
08:20 36.5 °F /  2.5 °C 34.9 °F /  1.6 °C 29.94in /  1013.8hPa WSW 5mph /  8km/h 6mph /  9.7km/h 94% 0.00in /  0mm 121 W/m2
08:30 36.7 °F /  2.6 °C 34.8 °F /  1.6 °C 29.95in /  1014.1hPa SW 3mph /  4.8km/h 7mph /  11.3km/h 93% 0.00in /  0mm 117 W/m2
08:40 36.9 °F /  2.7 °C 35 °F /  1.7 °C 29.95in /  1014.1hPa SW 6mph /  9.7km/h 9mph /  14.5km/h 93% 0.00in /  0mm 83 W/m2
08:50 36.9 °F /  2.7 °C 34.5 °F /  1.4 °C 29.95in /  1014.1hPa SW 5mph /  8km/h 13mph /  20.9km/h 91% 0.00in /  0mm 176 W/m2
09:00 37 °F /  2.8 °C 34.4 °F /  1.3 °C 29.95in /  1014.1hPa SSW 3mph /  4.8km/h 9mph /  14.5km/h 90% 0.00in /  0mm 151 W/m2
09:10 37.8 °F /  3.2 °C 35.1 °F /  1.7 °C 29.94in /  1013.8hPa South 5mph /  8km/h 7mph /  11.3km/h 90% 0.00in /  0mm 235 W/m2
09:20 38.7 °F /  3.7 °C 36 °F /  2.2 °C 29.94in /  1013.8hPa SSE 7mph /  11.3km/h 9mph /  14.5km/h 90% 0.00in /  0mm 197 W/m2
09:30 38.7 °F /  3.7 °C 35.4 °F /  1.9 °C 29.94in /  1013.8hPa SE 5mph /  8km/h 7mph /  11.3km/h 88% 0.00in /  0mm 188 W/m2
09:40 38.7 °F /  3.7 °C 35.7 °F /  2.1 °C 29.94in /  1013.8hPa SE 2mph /  3.2km/h 6mph /  9.7km/h 89% 0.00in /  0mm 238 W/m2
09:50 38.8 °F /  3.8 °C 35.6 °F /  2 °C 29.94in /  1013.8hPa SE 2mph /  3.2km/h 5mph /  8km/h 88% 0.00in /  0mm 129 W/m2
10:00 38.5 °F /  3.6 °C 35.2 °F /  1.8 °C 29.94in /  1013.8hPa East 2mph /  3.2km/h 5mph /  8km/h 88% 0.00in /  0mm 80 W/m2
10:10 38.7 °F /  3.7 °C 35.4 °F /  1.9 °C 29.94in /  1013.8hPa South 1mph /  1.6km/h 3mph /  4.8km/h 88% 0.00in /  0mm 248 W/m2
10:20 39.4 °F /  4.1 °C 36.1 °F /  2.3 °C 29.93in /  1013.4hPa SW 3mph /  4.8km/h 6mph /  9.7km/h 88% 0.00in /  0mm 323 W/m2
10:30 40.6 °F /  4.8 °C 36.8 °F /  2.7 °C 29.92in /  1013.1hPa SW 1mph /  1.6km/h 7mph /  11.3km/h 86% 0.00in /  0mm 330 W/m2
10:40 41.2 °F /  5.1 °C 37 °F /  2.8 °C 29.92in /  1013.1hPa West 1mph /  1.6km/h 5mph /  8km/h 85% 0.00in /  0mm 337 W/m2
10:50 41.7 °F /  5.4 °C 37.2 °F /  2.9 °C 29.93in /  1013.4hPa South 2mph /  3.2km/h 5mph /  8km/h 84% 0.00in /  0mm 239 W/m2
11:00 41.7 °F /  5.4 °C 36.9 °F /  2.7 °C 29.92in /  1013.1hPa SSW 2mph /  3.2km/h 5mph /  8km/h 83% 0.00in /  0mm 283 W/m2
11:10 41.7 °F /  5.4 °C 36.9 °F /  2.7 °C 29.92in /  1013.1hPa SSW 2mph /  3.2km/h 5mph /  8km/h 83% 0.00in /  0mm 347 W/m2
11:20 42.3 °F /  5.7 °C 37.5 °F /  3.1 °C 29.92in /  1013.1hPa SW 3mph /  4.8km/h 6mph /  9.7km/h 83% 0.00in /  0mm 229 W/m2
11:30 42.3 °F /  5.7 °C 36.8 °F /  2.7 °C 29.92in /  1013.1hPa WSW 3mph /  4.8km/h 5mph /  8km/h 81% 0.00in /  0mm 218 W/m2
11:40 42.1 °F /  5.6 °C 36.7 °F /  2.6 °C 29.92in /  1013.1hPa SW 3mph /  4.8km/h 6mph /  9.7km/h 81% 0.00in /  0mm 238 W/m2
11:50 42.1 °F /  5.6 °C 37.3 °F /  2.9 °C 29.91in /  1012.8hPa SW 3mph /  4.8km/h 8mph /  12.9km/h 83% 0.00in /  0mm 286 W/m2
12:00 42.3 °F /  5.7 °C 37.5 °F /  3.1 °C 29.91in /  1012.8hPa SSW 2mph /  3.2km/h 6mph /  9.7km/h 83% 0.00in /  0mm 211 W/m2
12:10 42.3 °F /  5.7 °C 37.5 °F /  3.1 °C 29.91in /  1012.8hPa WSW 2mph /  3.2km/h 4mph /  6.4km/h 83% 0.00in /  0mm 163 W/m2
12:20 42.3 °F /  5.7 °C 37.5 °F /  3.1 °C 29.91in /  1012.8hPa SE 5mph /  8km/h 9mph /  14.5km/h 83% 0.00in /  0mm 160 W/m2
12:30 42.1 °F /  5.6 °C 37.3 °F /  2.9 °C 29.91in /  1012.8hPa SE 6mph /  9.7km/h 9mph /  14.5km/h 83% 0.00in /  0mm 189 W/m2
12:40 42.1 °F /  5.6 °C 37.3 °F /  2.9 °C 29.91in /  1012.8hPa SE 5mph /  8km/h 8mph /  12.9km/h 83% 0.00in /  0mm 170 W/m2
12:50 41.9 °F /  5.5 °C 37.1 °F /  2.8 °C 29.90in /  1012.4hPa SE 5mph /  8km/h 8mph /  12.9km/h 83% 0.00in /  0mm 133 W/m2
13:00 41.5 °F /  5.3 °C 36.1 °F /  2.3 °C 29.91in /  1012.8hPa SE 2mph /  3.2km/h 9mph /  14.5km/h 81% 0.00in /  0mm 153 W/m2
13:10 41.5 °F /  5.3 °C 37.1 °F /  2.8 °C 29.90in /  1012.4hPa SE 5mph /  8km/h 8mph /  12.9km/h 84% 0.00in /  0mm 161 W/m2
13:20 41.4 °F /  5.2 °C 36.6 °F /  2.6 °C 29.90in /  1012.4hPa SE 3mph /  4.8km/h 7mph /  11.3km/h 83% 0.00in /  0mm 130 W/m2
13:30 41.3 °F /  5.2 °C 36.9 °F /  2.7 °C 29.90in /  1012.4hPa ESE 2mph /  3.2km/h 8mph /  12.9km/h 84% 0.00in /  0mm 113 W/m2
13:40 41.2 °F /  5.1 °C 36.7 °F /  2.6 °C 29.90in /  1012.4hPa SE 3mph /  4.8km/h 8mph /  12.9km/h 84% 0.00in /  0mm 128 W/m2
13:50 41.2 °F /  5.1 °C 36.7 °F /  2.6 °C 29.89in /  1012.1hPa SE 3mph /  4.8km/h 8mph /  12.9km/h 84% 0.00in /  0mm 113 W/m2
14:00 41.2 °F /  5.1 °C 36.7 °F /  2.6 °C 29.89in /  1012.1hPa SSE 3mph /  4.8km/h 8mph /  12.9km/h 84% 0.00in /  0mm 110 W/m2
14:10 41.2 °F /  5.1 °C 36.7 °F /  2.6 °C 29.89in /  1012.1hPa SSW 3mph /  4.8km/h 7mph /  11.3km/h 84% 0.00in /  0mm 88 W/m2
14:20 41.2 °F /  5.1 °C 36.7 °F /  2.6 °C 29.89in /  1012.1hPa South 2mph /  3.2km/h 8mph /  12.9km/h 84% 0.00in /  0mm 83 W/m2
14:30 41.1 °F /  5.1 °C 37 °F /  2.8 °C 29.89in /  1012.1hPa SSW 2mph /  3.2km/h 7mph /  11.3km/h 85% 0.00in /  0mm 71 W/m2
14:40 41 °F /  5 °C 36.8 °F /  2.7 °C 29.89in /  1012.1hPa SW 2mph /  3.2km/h 5mph /  8km/h 85% 0.00in /  0mm 52 W/m2
14:50 41 °F /  5 °C 36.8 °F /  2.7 °C 29.89in /  1012.1hPa WSW 1mph /  1.6km/h 4mph /  6.4km/h 85% 0.00in /  0mm 38 W/m2
15:00 41 °F /  5 °C 36.8 °F /  2.7 °C 29.89in /  1012.1hPa SE 2mph /  3.2km/h 5mph /  8km/h 85% 0.00in /  0mm 45 W/m2
15:10 41 °F /  5 °C 36.8 °F /  2.7 °C 29.88in /  1011.7hPa Calm   3mph /  4.8km/h 85% 0.00in /  0mm 44 W/m2
15:20 41 °F /  5 °C 36.8 °F /  2.7 °C 29.88in /  1011.7hPa SE 2mph /  3.2km/h 5mph /  8km/h 85% 0.00in /  0mm 28 W/m2
15:30 41 °F /  5 °C 36.8 °F /  2.7 °C 29.88in /  1011.7hPa SE 2mph /  3.2km/h 6mph /  9.7km/h 85% 0.00in /  0mm 13 W/m2
15:40 41 °F /  5 °C 37.1 °F /  2.8 °C 29.88in /  1011.7hPa Calm   3mph /  4.8km/h 86% 0.00in /  0mm 18 W/m2
15:50 41 °F /  5 °C 37.1 °F /  2.8 °C 29.88in /  1011.7hPa Calm   3mph /  4.8km/h 86% 0.00in /  0mm 8 W/m2
16:00 40.8 °F /  4.9 °C 37 °F /  2.8 °C 29.87in /  1011.4hPa Calm   3mph /  4.8km/h 86% 0.00in /  0mm 0 W/m2
16:10 40.6 °F /  4.8 °C 37.4 °F /  3 °C 29.88in /  1011.7hPa WSW 1mph /  1.6km/h 3mph /  4.8km/h 88% 0.00in /  0mm 0 W/m2
16:20 40.4 °F /  4.7 °C 37.2 °F /  2.9 °C 29.88in /  1011.7hPa NW 1mph /  1.6km/h 3mph /  4.8km/h 88% 0.00in /  0mm 0 W/m2
16:30 40.1 °F /  4.5 °C 36.8 °F /  2.7 °C 29.88in /  1011.7hPa NW 1mph /  1.6km/h 3mph /  4.8km/h 88% 0.00in /  0mm 0 W/m2
16:40 39.9 °F /  4.4 °C 36.7 °F /  2.6 °C 29.88in /  1011.7hPa NNW 2mph /  3.2km/h 5mph /  8km/h 88% 0.00in /  0mm 0 W/m2
16:50 39.7 °F /  4.3 °C 36.8 °F /  2.7 °C 29.88in /  1011.7hPa NW 1mph /  1.6km/h 5mph /  8km/h 89% 0.00in /  0mm 0 W/m2
17:00 39.5 °F /  4.2 °C 36.5 °F /  2.5 °C 29.88in /  1011.7hPa NW 2mph /  3.2km/h 4mph /  6.4km/h 89% 0.00in /  0mm 0 W/m2
17:10 39.2 °F /  4 °C 36.2 °F /  2.3 °C 29.88in /  1011.7hPa West 2mph /  3.2km/h 5mph /  8km/h 89% 0.00in /  0mm 0 W/m2
17:20 38.8 °F /  3.8 °C 35.9 °F /  2.2 °C 29.88in /  1011.7hPa West 1mph /  1.6km/h 5mph /  8km/h 89% 0.00in /  0mm 0 W/m2
17:30 38.5 °F /  3.6 °C 35.5 °F /  1.9 °C 29.88in /  1011.7hPa Calm   3mph /  4.8km/h 89% 0.00in /  0mm 0 W/m2
17:40 38.1 °F /  3.4 °C 35.2 °F /  1.8 °C 29.88in /  1011.7hPa Calm   2mph /  3.2km/h 89% 0.00in /  0mm 0 W/m2
17:50 37.7 °F /  3.2 °C 35 °F /  1.7 °C 29.88in /  1011.7hPa North 2mph /  3.2km/h 4mph /  6.4km/h 90% 0.00in /  0mm 0 W/m2
18:00 37.4 °F /  3 °C 34.7 °F /  1.5 °C 29.88in /  1011.7hPa Calm   4mph /  6.4km/h 90% 0.00in /  0mm 0 W/m2
18:10 37.2 °F /  2.9 °C 34.5 °F /  1.4 °C 29.88in /  1011.7hPa NNW 1mph /  1.6km/h 2mph /  3.2km/h 90% 0.00in /  0mm 0 W/m2
18:20 36.8 °F /  2.7 °C 34.4 °F /  1.3 °C 29.88in /  1011.7hPa North 1mph /  1.6km/h 2mph /  3.2km/h 91% 0.00in /  0mm 0 W/m2
18:30 36.5 °F /  2.5 °C 34.1 °F /  1.2 °C 29.88in /  1011.7hPa NW 1mph /  1.6km/h 2mph /  3.2km/h 91% 0.00in /  0mm 0 W/m2
18:40 36.1 °F /  2.3 °C 33.8 °F /  1 °C 29.88in /  1011.7hPa Calm   2mph /  3.2km/h 91% 0.00in /  0mm 0 W/m2
18:50 35.8 °F /  2.1 °C 33.4 °F /  0.8 °C 29.88in /  1011.7hPa West 2mph /  3.2km/h 2mph /  3.2km/h 91% 0.00in /  0mm 0 W/m2
19:00 35.4 °F /  1.9 °C 33.6 °F /  0.9 °C 29.88in /  1011.7hPa NW 1mph /  1.6km/h 4mph /  6.4km/h 93% 0.00in /  0mm 0 W/m2
19:10 35.2 °F /  1.8 °C 33.4 °F /  0.8 °C 29.88in /  1011.7hPa Calm   2mph /  3.2km/h 93% 0.00in /  0mm 0 W/m2
19:20 35.1 °F /  1.7 °C 33.5 °F /  0.8 °C 29.88in /  1011.7hPa NW 1mph /  1.6km/h 2mph /  3.2km/h 94% 0.00in /  0mm 0 W/m2
19:30 35.1 °F /  1.7 °C 33.5 °F /  0.8 °C 29.88in /  1011.7hPa West 2mph /  3.2km/h 3mph /  4.8km/h 94% 0.00in /  0mm 0 W/m2
19:40 34.9 °F /  1.6 °C 33.6 °F /  0.9 °C 29.88in /  1011.7hPa WNW 1mph /  1.6km/h 3mph /  4.8km/h 95% 0.00in /  0mm 0 W/m2
19:50 35.1 °F /  1.7 °C 33.8 °F /  1 °C 29.88in /  1011.7hPa Calm   2mph /  3.2km/h 95% 0.00in /  0mm 0 W/m2
20:00 35.1 °F /  1.7 °C 33.8 °F /  1 °C 29.88in /  1011.7hPa Calm   2mph /  3.2km/h 95% 0.00in /  0mm 0 W/m2
20:10 35.1 °F /  1.7 °C 33.8 °F /  1 °C 29.88in /  1011.7hPa WNW 1mph /  1.6km/h 1mph /  1.6km/h 95% 0.00in /  0mm 0 W/m2
20:20 35.1 °F /  1.7 °C 33.8 °F /  1 °C 29.88in /  1011.7hPa WNW 1mph /  1.6km/h 2mph /  3.2km/h 95% 0.00in /  0mm 0 W/m2
20:30 35.1 °F /  1.7 °C 33.8 °F /  1 °C 29.88in /  1011.7hPa Calm   2mph /  3.2km/h 95% 0.00in /  0mm 0 W/m2
20:40 34.9 °F /  1.6 °C 33.6 °F /  0.9 °C 29.88in /  1011.7hPa WNW 2mph /  3.2km/h 3mph /  4.8km/h 95% 0.00in /  0mm 0 W/m2
20:50 34.9 °F /  1.6 °C 33.6 °F /  0.9 °C 29.88in /  1011.7hPa Calm   2mph /  3.2km/h 95% 0.00in /  0mm 0 W/m2
21:00 34.9 °F /  1.6 °C 33.6 °F /  0.9 °C 29.88in /  1011.7hPa Calm   2mph /  3.2km/h 95% 0.00in /  0mm 0 W/m2
21:10 34.9 °F /  1.6 °C 33.6 °F /  0.9 °C 29.88in /  1011.7hPa NNW 1mph /  1.6km/h 2mph /  3.2km/h 95% 0.00in /  0mm 0 W/m2
21:20 35 °F /  1.7 °C 34 °F /  1.1 °C 29.88in /  1011.7hPa Calm   2mph /  3.2km/h 96% 0.00in /  0mm 0 W/m2
21:30 35.1 °F /  1.7 °C 34 °F /  1.1 °C 29.88in /  1011.7hPa Calm   1mph /  1.6km/h 96% 0.00in /  0mm 0 W/m2
21:40 35 °F /  1.7 °C 34 °F /  1.1 °C 29.88in /  1011.7hPa Calm   1mph /  1.6km/h 96% 0.00in /  0mm 0 W/m2
21:50 34.9 °F /  1.6 °C 33.9 °F /  1.1 °C 29.88in /  1011.7hPa Calm   1mph /  1.6km/h 96% 0.00in /  0mm 0 W/m2
22:00 35.1 °F /  1.7 °C 34 °F /  1.1 °C 29.88in /  1011.7hPa Calm   1mph /  1.6km/h 96% 0.00in /  0mm 0 W/m2
22:10 34.9 °F /  1.6 °C 33.9 °F /  1.1 °C 29.88in /  1011.7hPa Calm     96% 0.00in /  0mm 0 W/m2
22:20 34.9 °F /  1.6 °C 33.9 °F /  1.1 °C 29.88in /  1011.7hPa Calm   2mph /  3.2km/h 96% 0.00in /  0mm 0 W/m2
22:30 34.9 °F /  1.6 °C 33.9 °F /  1.1 °C 29.88in /  1011.7hPa Calm   1mph /  1.6km/h 96% 0.00in /  0mm 0 W/m2
22:40 34.9 °F /  1.6 °C 33.9 °F /  1.1 °C 29.88in /  1011.7hPa Calm   2mph /  3.2km/h 96% 0.00in /  0mm 0 W/m2
22:50 34.9 °F /  1.6 °C 33.9 °F /  1.1 °C 29.88in /  1011.7hPa Calm   1mph /  1.6km/h 96% 0.00in /  0mm 0 W/m2
23:00 34.9 °F /  1.6 °C 33.9 °F /  1.1 °C 29.88in /  1011.7hPa Calm   2mph /  3.2km/h 96% 0.00in /  0mm 0 W/m2
23:10 35.1 °F /  1.7 °C 34.6 °F /  1.4 °C 29.88in /  1011.7hPa WNW 1mph /  1.6km/h 3mph /  4.8km/h 98% 0.00in /  0mm 0 W/m2
23:20 35.1 °F /  1.7 °C 34.6 °F /  1.4 °C 29.88in /  1011.7hPa WNW 1mph /  1.6km/h 3mph /  4.8km/h 98% 0.00in /  0mm 0 W/m2
23:30 35.1 °F /  1.7 °C 34.6 °F /  1.4 °C 29.88in /  1011.7hPa West 1mph /  1.6km/h 2mph /  3.2km/h 98% 0.00in /  0mm 0 W/m2
23:40 34.9 °F /  1.6 °C 33.9 °F /  1.1 °C 29.88in /  1011.7hPa Calm   2mph /  3.2km/h 96% 0.00in /  0mm 0 W/m2
23:50 34.9 °F /  1.6 °C 34.4 °F /  1.3 °C 29.88in /  1011.7hPa Calm   2mph /  3.2km/h 98% 0.00in /  0mm 0 W/m2
Knjazevac, Serbia
Compliments of Weather Underground - 2 mb